sensor_id;sensor_type;location;lat;lon;timestamp;temperature;humidity
420;DHT22;42600;54.408;13.016;2023-05-18T00:00:46;8.50;87.50
420;DHT22;42600;54.408;13.016;2023-05-18T00:03:13;8.40;87.90
420;DHT22;42600;54.408;13.016;2023-05-18T00:05:40;8.30;88.80
420;DHT22;42600;54.408;13.016;2023-05-18T00:08:08;8.30;88.50
420;DHT22;42600;54.408;13.016;2023-05-18T00:10:35;8.20;88.80
420;DHT22;42600;54.408;13.016;2023-05-18T00:13:02;8.20;89.60
420;DHT22;42600;54.408;13.016;2023-05-18T00:15:29;8.10;88.90
420;DHT22;42600;54.408;13.016;2023-05-18T00:17:56;8.10;89.10
420;DHT22;42600;54.408;13.016;2023-05-18T00:20:23;8.00;89.20
420;DHT22;42600;54.408;13.016;2023-05-18T00:22:51;8.00;88.60
420;DHT22;42600;54.408;13.016;2023-05-18T00:25:19;8.00;88.00
420;DHT22;42600;54.408;13.016;2023-05-18T00:27:45;8.00;87.30
420;DHT22;42600;54.408;13.016;2023-05-18T00:30:14;8.00;87.70
420;DHT22;42600;54.408;13.016;2023-05-18T00:32:40;7.90;89.30
420;DHT22;42600;54.408;13.016;2023-05-18T00:35:07;7.90;90.10
420;DHT22;42600;54.408;13.016;2023-05-18T00:37:34;7.90;90.60
420;DHT22;42600;54.408;13.016;2023-05-18T00:40:01;7.80;90.90
420;DHT22;42600;54.408;13.016;2023-05-18T00:42:32;7.70;91.50
420;DHT22;42600;54.408;13.016;2023-05-18T00:44:58;7.70;92.10
420;DHT22;42600;54.408;13.016;2023-05-18T00:47:25;7.70;92.50
420;DHT22;42600;54.408;13.016;2023-05-18T00:49:52;7.60;92.70
420;DHT22;42600;54.408;13.016;2023-05-18T00:52:19;7.60;92.30
420;DHT22;42600;54.408;13.016;2023-05-18T00:54:46;7.60;92.30
420;DHT22;42600;54.408;13.016;2023-05-18T00:57:13;7.60;92.10
420;DHT22;42600;54.408;13.016;2023-05-18T00:59:41;7.60;92.40
420;DHT22;42600;54.408;13.016;2023-05-18T01:02:08;7.60;91.40
420;DHT22;42600;54.408;13.016;2023-05-18T01:04:36;7.60;92.00
420;DHT22;42600;54.408;13.016;2023-05-18T01:07:05;7.60;92.70
420;DHT22;42600;54.408;13.016;2023-05-18T01:09:33;7.60;92.70
420;DHT22;42600;54.408;13.016;2023-05-18T01:12:05;7.50;92.70
420;DHT22;42600;54.408;13.016;2023-05-18T01:14:38;7.50;92.70
420;DHT22;42600;54.408;13.016;2023-05-18T01:17:15;7.40;92.70
420;DHT22;42600;54.408;13.016;2023-05-18T01:20:11;7.30;92.70
420;DHT22;42600;54.408;13.016;2023-05-18T01:22:57;7.30;92.70
420;DHT22;42600;54.408;13.016;2023-05-18T01:25:33;7.30;92.70
420;DHT22;42600;54.408;13.016;2023-05-18T01:28:04;7.30;92.70
420;DHT22;42600;54.408;13.016;2023-05-18T01:30:39;7.30;92.30
420;DHT22;42600;54.408;13.016;2023-05-18T01:33:06;7.30;89.90
420;DHT22;42600;54.408;13.016;2023-05-18T01:35:34;7.40;89.40
420;DHT22;42600;54.408;13.016;2023-05-18T01:38:01;7.40;88.80
420;DHT22;42600;54.408;13.016;2023-05-18T01:40:31;7.40;88.20
420;DHT22;42600;54.408;13.016;2023-05-18T01:43:04;7.30;89.00
420;DHT22;42600;54.408;13.016;2023-05-18T01:45:31;7.20;90.30
420;DHT22;42600;54.408;13.016;2023-05-18T01:47:59;7.30;89.00
420;DHT22;42600;54.408;13.016;2023-05-18T01:50:32;7.40;88.00
420;DHT22;42600;54.408;13.016;2023-05-18T01:53:06;7.40;87.80
420;DHT22;42600;54.408;13.016;2023-05-18T01:55:35;7.20;88.80
420;DHT22;42600;54.408;13.016;2023-05-18T01:58:05;7.20;88.50
420;DHT22;42600;54.408;13.016;2023-05-18T02:00:32;7.10;88.70
420;DHT22;42600;54.408;13.016;2023-05-18T02:02:59;7.00;89.00
420;DHT22;42600;54.408;13.016;2023-05-18T02:05:26;6.90;89.20
420;DHT22;42600;54.408;13.016;2023-05-18T02:07:52;6.80;90.40
420;DHT22;42600;54.408;13.016;2023-05-18T02:10:20;6.70;91.30
420;DHT22;42600;54.408;13.016;2023-05-18T02:12:46;6.50;92.10
420;DHT22;42600;54.408;13.016;2023-05-18T02:15:18;6.50;92.40
420;DHT22;42600;54.408;13.016;2023-05-18T02:17:45;6.40;91.90
420;DHT22;42600;54.408;13.016;2023-05-18T02:20:13;6.30;92.40
420;DHT22;42600;54.408;13.016;2023-05-18T02:22:43;6.20;92.70
420;DHT22;42600;54.408;13.016;2023-05-18T02:25:10;6.20;92.70
420;DHT22;42600;54.408;13.016;2023-05-18T02:27:36;6.10;92.70
420;DHT22;42600;54.408;13.016;2023-05-18T02:30:04;6.00;92.40
420;DHT22;42600;54.408;13.016;2023-05-18T02:32:34;6.00;92.70
420;DHT22;42600;54.408;13.016;2023-05-18T02:35:04;5.90;92.70
420;DHT22;42600;54.408;13.016;2023-05-18T02:37:30;5.80;92.70
420;DHT22;42600;54.408;13.016;2023-05-18T02:39:58;5.80;92.70
420;DHT22;42600;54.408;13.016;2023-05-18T02:42:25;5.90;92.70
420;DHT22;42600;54.408;13.016;2023-05-18T02:44:51;6.00;92.00
420;DHT22;42600;54.408;13.016;2023-05-18T02:47:18;6.00;92.50
420;DHT22;42600;54.408;13.016;2023-05-18T02:49:46;6.00;92.70
420;DHT22;42600;54.408;13.016;2023-05-18T02:52:13;6.00;92.30
420;DHT22;42600;54.408;13.016;2023-05-18T02:54:40;6.10;92.30
420;DHT22;42600;54.408;13.016;2023-05-18T02:57:07;6.10;92.70
420;DHT22;42600;54.408;13.016;2023-05-18T02:59:36;6.10;92.70
420;DHT22;42600;54.408;13.016;2023-05-18T03:02:03;6.10;92.70
420;DHT22;42600;54.408;13.016;2023-05-18T03:04:30;6.10;92.70
420;DHT22;42600;54.408;13.016;2023-05-18T03:06:58;6.20;92.70
420;DHT22;42600;54.408;13.016;2023-05-18T03:09:27;6.20;92.70
420;DHT22;42600;54.408;13.016;2023-05-18T03:11:53;6.30;92.70
420;DHT22;42600;54.408;13.016;2023-05-18T03:14:20;6.30;92.10
420;DHT22;42600;54.408;13.016;2023-05-18T03:16:47;6.50;90.10
420;DHT22;42600;54.408;13.016;2023-05-18T03:19:18;6.60;89.30
420;DHT22;42600;54.408;13.016;2023-05-18T03:21:44;6.60;90.30
420;DHT22;42600;54.408;13.016;2023-05-18T03:24:15;6.60;91.40
420;DHT22;42600;54.408;13.016;2023-05-18T03:26:41;6.60;92.20
420;DHT22;42600;54.408;13.016;2023-05-18T03:29:08;6.60;92.40
420;DHT22;42600;54.408;13.016;2023-05-18T03:31:35;6.70;91.00
420;DHT22;42600;54.408;13.016;2023-05-18T03:34:02;6.70;90.80
420;DHT22;42600;54.408;13.016;2023-05-18T03:36:29;6.70;89.20
420;DHT22;42600;54.408;13.016;2023-05-18T03:38:55;6.80;90.50
420;DHT22;42600;54.408;13.016;2023-05-18T03:41:23;6.90;89.10
420;DHT22;42600;54.408;13.016;2023-05-18T03:43:50;6.90;90.60
420;DHT22;42600;54.408;13.016;2023-05-18T03:46:17;6.90;91.60
420;DHT22;42600;54.408;13.016;2023-05-18T03:48:43;6.90;90.70
420;DHT22;42600;54.408;13.016;2023-05-18T03:51:10;7.00;91.70
420;DHT22;42600;54.408;13.016;2023-05-18T03:53:36;7.00;89.40
420;DHT22;42600;54.408;13.016;2023-05-18T03:56:04;7.10;88.70
420;DHT22;42600;54.408;13.016;2023-05-18T03:58:32;7.10;89.00
420;DHT22;42600;54.408;13.016;2023-05-18T04:00:59;7.10;88.10
420;DHT22;42600;54.408;13.016;2023-05-18T04:03:26;7.20;89.30
420;DHT22;42600;54.408;13.016;2023-05-18T04:05:52;7.20;88.30
420;DHT22;42600;54.408;13.016;2023-05-18T04:08:20;7.20;88.30
420;DHT22;42600;54.408;13.016;2023-05-18T04:10:49;7.20;88.20
420;DHT22;42600;54.408;13.016;2023-05-18T04:13:16;7.20;88.70
420;DHT22;42600;54.408;13.016;2023-05-18T04:15:44;7.20;88.90
420;DHT22;42600;54.408;13.016;2023-05-18T04:18:12;7.20;88.20
420;DHT22;42600;54.408;13.016;2023-05-18T04:20:39;7.30;88.00
420;DHT22;42600;54.408;13.016;2023-05-18T04:23:07;7.30;87.70
420;DHT22;42600;54.408;13.016;2023-05-18T04:25:34;7.30;87.50
420;DHT22;42600;54.408;13.016;2023-05-18T04:28:01;7.30;87.30
420;DHT22;42600;54.408;13.016;2023-05-18T04:30:28;7.30;87.20
420;DHT22;42600;54.408;13.016;2023-05-18T04:32:56;7.40;87.90
420;DHT22;42600;54.408;13.016;2023-05-18T04:35:24;7.40;87.50
420;DHT22;42600;54.408;13.016;2023-05-18T04:37:51;7.40;87.10
420;DHT22;42600;54.408;13.016;2023-05-18T04:40:18;7.50;86.80
420;DHT22;42600;54.408;13.016;2023-05-18T04:42:45;7.50;87.00
420;DHT22;42600;54.408;13.016;2023-05-18T04:45:13;7.50;86.90
420;DHT22;42600;54.408;13.016;2023-05-18T04:47:42;7.50;86.80
420;DHT22;42600;54.408;13.016;2023-05-18T04:50:13;7.60;86.70
420;DHT22;42600;54.408;13.016;2023-05-18T04:52:40;7.60;86.60
420;DHT22;42600;54.408;13.016;2023-05-18T04:55:12;7.70;86.80
420;DHT22;42600;54.408;13.016;2023-05-18T04:57:39;7.80;85.90
420;DHT22;42600;54.408;13.016;2023-05-18T05:00:07;7.90;85.90
420;DHT22;42600;54.408;13.016;2023-05-18T05:02:34;8.00;85.70
420;DHT22;42600;54.408;13.016;2023-05-18T05:05:00;8.10;85.60
420;DHT22;42600;54.408;13.016;2023-05-18T05:07:28;8.10;85.60
420;DHT22;42600;54.408;13.016;2023-05-18T05:09:55;8.20;85.80
420;DHT22;42600;54.408;13.016;2023-05-18T05:12:22;8.30;86.00
420;DHT22;42600;54.408;13.016;2023-05-18T05:14:48;8.40;86.00
420;DHT22;42600;54.408;13.016;2023-05-18T05:17:15;8.60;85.80
420;DHT22;42600;54.408;13.016;2023-05-18T05:19:42;8.60;86.10
420;DHT22;42600;54.408;13.016;2023-05-18T05:22:08;8.70;86.70
420;DHT22;42600;54.408;13.016;2023-05-18T05:24:36;8.80;86.10
420;DHT22;42600;54.408;13.016;2023-05-18T05:27:03;8.90;86.00
420;DHT22;42600;54.408;13.016;2023-05-18T05:29:30;8.90;86.00
420;DHT22;42600;54.408;13.016;2023-05-18T05:31:57;9.00;85.70
420;DHT22;42600;54.408;13.016;2023-05-18T05:34:23;9.10;85.80
420;DHT22;42600;54.408;13.016;2023-05-18T05:36:50;9.20;85.60
420;DHT22;42600;54.408;13.016;2023-05-18T05:39:16;9.30;84.80
420;DHT22;42600;54.408;13.016;2023-05-18T05:41:45;9.50;84.70
420;DHT22;42600;54.408;13.016;2023-05-18T05:44:11;9.60;84.40
420;DHT22;42600;54.408;13.016;2023-05-18T05:46:38;9.80;84.50
420;DHT22;42600;54.408;13.016;2023-05-18T05:49:05;10.00;84.30
420;DHT22;42600;54.408;13.016;2023-05-18T05:51:31;10.20;83.30
420;DHT22;42600;54.408;13.016;2023-05-18T05:53:58;10.30;82.40
420;DHT22;42600;54.408;13.016;2023-05-18T05:56:25;10.40;82.30
420;DHT22;42600;54.408;13.016;2023-05-18T05:58:53;10.50;81.90
420;DHT22;42600;54.408;13.016;2023-05-18T06:01:19;10.70;81.40
420;DHT22;42600;54.408;13.016;2023-05-18T06:03:46;10.80;80.80
420;DHT22;42600;54.408;13.016;2023-05-18T06:06:13;10.90;81.30
420;DHT22;42600;54.408;13.016;2023-05-18T06:08:40;11.10;80.50
420;DHT22;42600;54.408;13.016;2023-05-18T06:11:07;11.10;80.40
420;DHT22;42600;54.408;13.016;2023-05-18T06:13:34;11.00;80.20
420;DHT22;42600;54.408;13.016;2023-05-18T06:16:02;11.00;80.10
420;DHT22;42600;54.408;13.016;2023-05-18T06:18:29;11.10;80.60
420;DHT22;42600;54.408;13.016;2023-05-18T06:20:56;11.10;80.00
420;DHT22;42600;54.408;13.016;2023-05-18T06:23:23;11.10;80.60
420;DHT22;42600;54.408;13.016;2023-05-18T06:25:49;11.10;80.30
420;DHT22;42600;54.408;13.016;2023-05-18T06:28:16;11.10;80.50
420;DHT22;42600;54.408;13.016;2023-05-18T06:30:43;11.10;80.40
420;DHT22;42600;54.408;13.016;2023-05-18T06:33:11;11.10;80.40
420;DHT22;42600;54.408;13.016;2023-05-18T06:35:39;11.00;80.10
420;DHT22;42600;54.408;13.016;2023-05-18T06:38:05;11.00;80.10
420;DHT22;42600;54.408;13.016;2023-05-18T06:40:32;11.10;79.90
420;DHT22;42600;54.408;13.016;2023-05-18T06:42:59;11.20;79.60
420;DHT22;42600;54.408;13.016;2023-05-18T06:45:26;11.30;79.50
420;DHT22;42600;54.408;13.016;2023-05-18T06:47:52;11.40;79.80
420;DHT22;42600;54.408;13.016;2023-05-18T06:50:20;11.40;79.70
420;DHT22;42600;54.408;13.016;2023-05-18T06:52:47;11.40;79.40
420;DHT22;42600;54.408;13.016;2023-05-18T06:55:14;11.40;78.90
420;DHT22;42600;54.408;13.016;2023-05-18T06:57:41;11.30;78.30
420;DHT22;42600;54.408;13.016;2023-05-18T07:00:08;11.40;78.40
420;DHT22;42600;54.408;13.016;2023-05-18T07:02:36;11.40;78.70
420;DHT22;42600;54.408;13.016;2023-05-18T07:05:04;11.60;79.50
420;DHT22;42600;54.408;13.016;2023-05-18T07:07:35;11.50;78.10
420;DHT22;42600;54.408;13.016;2023-05-18T07:10:02;11.60;79.40
420;DHT22;42600;54.408;13.016;2023-05-18T07:12:29;11.70;79.30
420;DHT22;42600;54.408;13.016;2023-05-18T07:14:55;11.70;78.80
420;DHT22;42600;54.408;13.016;2023-05-18T07:17:22;11.70;77.50
420;DHT22;42600;54.408;13.016;2023-05-18T07:19:49;11.90;78.10
420;DHT22;42600;54.408;13.016;2023-05-18T07:22:15;12.00;76.60
420;DHT22;42600;54.408;13.016;2023-05-18T07:24:43;12.10;78.00
420;DHT22;42600;54.408;13.016;2023-05-18T07:27:10;12.30;76.40
420;DHT22;42600;54.408;13.016;2023-05-18T07:29:37;12.40;77.20
420;DHT22;42600;54.408;13.016;2023-05-18T07:32:04;12.40;76.20
420;DHT22;42600;54.408;13.016;2023-05-18T07:34:31;12.30;75.60
420;DHT22;42600;54.408;13.016;2023-05-18T07:36:58;12.40;76.20
420;DHT22;42600;54.408;13.016;2023-05-18T07:39:24;12.40;75.10
420;DHT22;42600;54.408;13.016;2023-05-18T07:41:55;12.10;74.50
420;DHT22;42600;54.408;13.016;2023-05-18T07:44:22;12.20;76.10
420;DHT22;42600;54.408;13.016;2023-05-18T07:46:48;12.40;77.00
420;DHT22;42600;54.408;13.016;2023-05-18T07:49:16;12.40;75.20
420;DHT22;42600;54.408;13.016;2023-05-18T07:51:42;12.30;74.60
420;DHT22;42600;54.408;13.016;2023-05-18T07:54:09;12.20;73.30
420;DHT22;42600;54.408;13.016;2023-05-18T07:56:36;12.10;74.10
420;DHT22;42600;54.408;13.016;2023-05-18T07:59:03;12.10;73.60
420;DHT22;42600;54.408;13.016;2023-05-18T08:01:30;12.10;73.60
420;DHT22;42600;54.408;13.016;2023-05-18T08:03:57;12.30;75.60
420;DHT22;42600;54.408;13.016;2023-05-18T08:06:23;12.30;75.80
420;DHT22;42600;54.408;13.016;2023-05-18T08:08:50;12.50;75.70
420;DHT22;42600;54.408;13.016;2023-05-18T08:11:17;12.40;75.20
420;DHT22;42600;54.408;13.016;2023-05-18T08:13:43;12.40;74.20
420;DHT22;42600;54.408;13.016;2023-05-18T08:16:11;12.50;74.10
420;DHT22;42600;54.408;13.016;2023-05-18T08:18:38;12.60;75.80
420;DHT22;42600;54.408;13.016;2023-05-18T08:21:05;12.60;74.40
420;DHT22;42600;54.408;13.016;2023-05-18T08:23:33;12.40;73.30
420;DHT22;42600;54.408;13.016;2023-05-18T08:26:00;12.40;73.30
420;DHT22;42600;54.408;13.016;2023-05-18T08:28:27;12.20;72.80
420;DHT22;42600;54.408;13.016;2023-05-18T08:30:54;12.00;73.30
420;DHT22;42600;54.408;13.016;2023-05-18T08:33:22;12.40;74.20
420;DHT22;42600;54.408;13.016;2023-05-18T08:35:49;12.50;73.00
420;DHT22;42600;54.408;13.016;2023-05-18T08:38:15;12.80;74.40
420;DHT22;42600;54.408;13.016;2023-05-18T08:41:01;12.60;71.70
420;DHT22;42600;54.408;13.016;2023-05-18T08:43:30;12.70;73.20
420;DHT22;42600;54.408;13.016;2023-05-18T08:46:03;12.90;72.40
420;DHT22;42600;54.408;13.016;2023-05-18T08:48:32;12.80;70.90
420;DHT22;42600;54.408;13.016;2023-05-18T08:51:01;12.60;71.20
420;DHT22;42600;54.408;13.016;2023-05-18T08:53:28;12.70;71.80
420;DHT22;42600;54.408;13.016;2023-05-18T08:55:59;12.80;71.70
420;DHT22;42600;54.408;13.016;2023-05-18T08:58:31;12.90;73.40
420;DHT22;42600;54.408;13.016;2023-05-18T09:00:59;13.10;74.00
420;DHT22;42600;54.408;13.016;2023-05-18T09:03:26;12.90;71.70
420;DHT22;42600;54.408;13.016;2023-05-18T09:05:56;13.20;73.10
420;DHT22;42600;54.408;13.016;2023-05-18T09:08:24;12.90;69.20
420;DHT22;42600;54.408;13.016;2023-05-18T09:10:51;12.60;71.40
420;DHT22;42600;54.408;13.016;2023-05-18T09:13:21;13.10;74.70
420;DHT22;42600;54.408;13.016;2023-05-18T09:15:48;13.40;71.80
420;DHT22;42600;54.408;13.016;2023-05-18T09:18:16;13.20;70.00
420;DHT22;42600;54.408;13.016;2023-05-18T09:20:42;12.80;69.50
420;DHT22;42600;54.408;13.016;2023-05-18T09:23:11;12.70;70.70
420;DHT22;42600;54.408;13.016;2023-05-18T09:25:42;13.00;70.50
420;DHT22;42600;54.408;13.016;2023-05-18T09:28:10;13.30;74.30
420;DHT22;42600;54.408;13.016;2023-05-18T09:30:41;13.20;70.50
420;DHT22;42600;54.408;13.016;2023-05-18T09:33:15;13.40;70.20
420;DHT22;42600;54.408;13.016;2023-05-18T09:35:44;13.20;70.70
420;DHT22;42600;54.408;13.016;2023-05-18T09:38:14;13.40;73.30
420;DHT22;42600;54.408;13.016;2023-05-18T09:40:44;14.10;71.10
420;DHT22;42600;54.408;13.016;2023-05-18T09:43:10;14.10;69.10
420;DHT22;42600;54.408;13.016;2023-05-18T09:45:41;14.30;70.30
420;DHT22;42600;54.408;13.016;2023-05-18T09:48:09;14.30;69.50
420;DHT22;42600;54.408;13.016;2023-05-18T09:50:36;13.70;68.60
420;DHT22;42600;54.408;13.016;2023-05-18T09:53:05;13.70;68.80
420;DHT22;42600;54.408;13.016;2023-05-18T09:55:36;13.50;69.30
420;DHT22;42600;54.408;13.016;2023-05-18T09:58:06;13.50;69.90
420;DHT22;42600;54.408;13.016;2023-05-18T10:00:36;13.30;70.70
420;DHT22;42600;54.408;13.016;2023-05-18T10:03:03;13.60;71.10
420;DHT22;42600;54.408;13.016;2023-05-18T10:05:30;14.10;69.40
420;DHT22;42600;54.408;13.016;2023-05-18T10:07:58;14.20;70.40
420;DHT22;42600;54.408;13.016;2023-05-18T10:10:27;13.90;71.40
420;DHT22;42600;54.408;13.016;2023-05-18T10:12:56;13.90;70.20
420;DHT22;42600;54.408;13.016;2023-05-18T10:15:23;14.50;70.00
420;DHT22;42600;54.408;13.016;2023-05-18T10:17:54;14.40;70.30
420;DHT22;42600;54.408;13.016;2023-05-18T10:20:22;14.50;70.50
420;DHT22;42600;54.408;13.016;2023-05-18T10:22:51;14.20;67.50
420;DHT22;42600;54.408;13.016;2023-05-18T10:25:21;14.00;70.20
420;DHT22;42600;54.408;13.016;2023-05-18T10:27:49;13.80;67.10
420;DHT22;42600;54.408;13.016;2023-05-18T10:30:18;14.10;72.60
420;DHT22;42600;54.408;13.016;2023-05-18T10:32:47;14.40;68.90
420;DHT22;42600;54.408;13.016;2023-05-18T10:35:15;14.50;69.40
420;DHT22;42600;54.408;13.016;2023-05-18T10:37:44;13.80;67.40
420;DHT22;42600;54.408;13.016;2023-05-18T10:40:13;13.70;70.40
420;DHT22;42600;54.408;13.016;2023-05-18T10:42:40;13.90;69.20
420;DHT22;42600;54.408;13.016;2023-05-18T10:45:08;14.10;69.70
420;DHT22;42600;54.408;13.016;2023-05-18T10:47:39;14.50;68.20
420;DHT22;42600;54.408;13.016;2023-05-18T10:50:07;14.20;67.90
420;DHT22;42600;54.408;13.016;2023-05-18T10:52:36;14.20;67.50
420;DHT22;42600;54.408;13.016;2023-05-18T10:55:03;14.00;67.90
420;DHT22;42600;54.408;13.016;2023-05-18T10:57:34;14.00;69.00
420;DHT22;42600;54.408;13.016;2023-05-18T11:00:04;14.10;69.60
420;DHT22;42600;54.408;13.016;2023-05-18T11:02:32;13.60;67.60
420;DHT22;42600;54.408;13.016;2023-05-18T11:05:04;13.70;69.50
420;DHT22;42600;54.408;13.016;2023-05-18T11:07:30;13.50;69.00
420;DHT22;42600;54.408;13.016;2023-05-18T11:10:00;13.30;69.60
420;DHT22;42600;54.408;13.016;2023-05-18T11:12:27;13.40;70.00
420;DHT22;42600;54.408;13.016;2023-05-18T11:14:57;13.30;69.20
420;DHT22;42600;54.408;13.016;2023-05-18T11:17:24;13.10;69.00
420;DHT22;42600;54.408;13.016;2023-05-18T11:20:12;13.40;69.90
420;DHT22;42600;54.408;13.016;2023-05-18T11:22:49;14.00;74.50
420;DHT22;42600;54.408;13.016;2023-05-18T11:25:38;13.40;67.70
420;DHT22;42600;54.408;13.016;2023-05-18T11:28:07;13.20;69.60
420;DHT22;42600;54.408;13.016;2023-05-18T11:30:46;13.40;71.10
420;DHT22;42600;54.408;13.016;2023-05-18T11:33:15;13.60;69.30
420;DHT22;42600;54.408;13.016;2023-05-18T11:36:05;14.00;72.60
420;DHT22;42600;54.408;13.016;2023-05-18T11:38:50;13.80;68.20
420;DHT22;42600;54.408;13.016;2023-05-18T11:41:35;13.20;68.90
420;DHT22;42600;54.408;13.016;2023-05-18T11:44:05;12.80;70.50
420;DHT22;42600;54.408;13.016;2023-05-18T11:46:34;13.30;72.00
420;DHT22;42600;54.408;13.016;2023-05-18T11:49:06;13.90;71.20
420;DHT22;42600;54.408;13.016;2023-05-18T11:51:54;13.10;69.00
420;DHT22;42600;54.408;13.016;2023-05-18T11:54:22;13.10;70.20
420;DHT22;42600;54.408;13.016;2023-05-18T11:56:49;13.10;69.50
420;DHT22;42600;54.408;13.016;2023-05-18T11:59:29;13.40;70.00
420;DHT22;42600;54.408;13.016;2023-05-18T12:01:56;13.30;69.80
420;DHT22;42600;54.408;13.016;2023-05-18T12:04:23;13.40;69.80
420;DHT22;42600;54.408;13.016;2023-05-18T12:06:52;13.40;69.60
420;DHT22;42600;54.408;13.016;2023-05-18T12:09:19;13.40;69.50
420;DHT22;42600;54.408;13.016;2023-05-18T12:11:46;13.60;72.20
420;DHT22;42600;54.408;13.016;2023-05-18T12:14:13;13.40;68.00
420;DHT22;42600;54.408;13.016;2023-05-18T12:16:40;13.30;70.30
420;DHT22;42600;54.408;13.016;2023-05-18T12:19:08;13.60;70.40
420;DHT22;42600;54.408;13.016;2023-05-18T12:21:34;13.60;68.80
420;DHT22;42600;54.408;13.016;2023-05-18T12:24:03;13.40;68.50
420;DHT22;42600;54.408;13.016;2023-05-18T12:26:32;13.10;69.50
420;DHT22;42600;54.408;13.016;2023-05-18T12:28:59;13.40;71.60
420;DHT22;42600;54.408;13.016;2023-05-18T12:31:26;13.30;69.10
420;DHT22;42600;54.408;13.016;2023-05-18T12:33:54;13.00;70.20
420;DHT22;42600;54.408;13.016;2023-05-18T12:36:21;12.80;69.50
420;DHT22;42600;54.408;13.016;2023-05-18T12:38:48;13.20;70.60
420;DHT22;42600;54.408;13.016;2023-05-18T12:41:24;13.10;70.30
420;DHT22;42600;54.408;13.016;2023-05-18T12:43:50;13.20;70.30
420;DHT22;42600;54.408;13.016;2023-05-18T12:46:20;13.10;69.70
420;DHT22;42600;54.408;13.016;2023-05-18T12:48:55;13.00;69.90
420;DHT22;42600;54.408;13.016;2023-05-18T12:51:22;12.70;70.40
420;DHT22;42600;54.408;13.016;2023-05-18T12:53:49;12.60;70.60
420;DHT22;42600;54.408;13.016;2023-05-18T12:56:16;12.70;70.40
420;DHT22;42600;54.408;13.016;2023-05-18T12:58:55;13.20;72.60
420;DHT22;42600;54.408;13.016;2023-05-18T13:01:22;13.00;70.00
420;DHT22;42600;54.408;13.016;2023-05-18T13:03:54;13.10;68.80
420;DHT22;42600;54.408;13.016;2023-05-18T13:06:20;12.60;69.30
420;DHT22;42600;54.408;13.016;2023-05-18T13:08:47;12.90;70.70
420;DHT22;42600;54.408;13.016;2023-05-18T13:11:14;13.30;71.30
420;DHT22;42600;54.408;13.016;2023-05-18T13:13:57;13.30;72.00
420;DHT22;42600;54.408;13.016;2023-05-18T13:16:24;13.40;70.20
420;DHT22;42600;54.408;13.016;2023-05-18T13:18:55;13.40;69.50
420;DHT22;42600;54.408;13.016;2023-05-18T13:21:22;12.80;69.20
420;DHT22;42600;54.408;13.016;2023-05-18T13:23:48;12.90;71.30
420;DHT22;42600;54.408;13.016;2023-05-18T13:26:15;12.90;70.50
420;DHT22;42600;54.408;13.016;2023-05-18T13:28:45;12.50;70.60
420;DHT22;42600;54.408;13.016;2023-05-18T13:31:13;12.60;71.30
420;DHT22;42600;54.408;13.016;2023-05-18T13:33:40;13.00;71.50
420;DHT22;42600;54.408;13.016;2023-05-18T13:36:07;12.80;70.80
420;DHT22;42600;54.408;13.016;2023-05-18T13:38:34;12.90;71.20
420;DHT22;42600;54.408;13.016;2023-05-18T13:41:02;12.70;71.00
420;DHT22;42600;54.408;13.016;2023-05-18T13:43:29;12.70;71.40
420;DHT22;42600;54.408;13.016;2023-05-18T13:45:55;13.20;70.90
420;DHT22;42600;54.408;13.016;2023-05-18T13:48:24;13.20;70.30
420;DHT22;42600;54.408;13.016;2023-05-18T13:50:52;13.00;70.60
420;DHT22;42600;54.408;13.016;2023-05-18T13:53:18;13.10;72.40
420;DHT22;42600;54.408;13.016;2023-05-18T13:55:45;12.90;69.10
420;DHT22;42600;54.408;13.016;2023-05-18T13:58:12;12.80;70.00
420;DHT22;42600;54.408;13.016;2023-05-18T14:00:39;12.60;70.50
420;DHT22;42600;54.408;13.016;2023-05-18T14:03:06;12.50;71.50
420;DHT22;42600;54.408;13.016;2023-05-18T14:05:34;12.50;71.80
420;DHT22;42600;54.408;13.016;2023-05-18T14:08:01;12.40;71.60
420;DHT22;42600;54.408;13.016;2023-05-18T14:10:28;12.90;70.60
420;DHT22;42600;54.408;13.016;2023-05-18T14:12:55;12.90;71.20
420;DHT22;42600;54.408;13.016;2023-05-18T14:15:21;12.70;71.50
420;DHT22;42600;54.408;13.016;2023-05-18T14:17:48;12.80;71.80
420;DHT22;42600;54.408;13.016;2023-05-18T14:20:15;12.90;70.80
420;DHT22;42600;54.408;13.016;2023-05-18T14:22:43;13.00;70.80
420;DHT22;42600;54.408;13.016;2023-05-18T14:25:09;12.90;71.00
420;DHT22;42600;54.408;13.016;2023-05-18T14:27:36;12.60;70.90
420;DHT22;42600;54.408;13.016;2023-05-18T14:30:04;12.50;71.00
420;DHT22;42600;54.408;13.016;2023-05-18T14:32:31;12.80;73.90
420;DHT22;42600;54.408;13.016;2023-05-18T14:34:57;13.10;70.20
420;DHT22;42600;54.408;13.016;2023-05-18T14:37:24;12.90;71.60
420;DHT22;42600;54.408;13.016;2023-05-18T14:39:52;13.00;71.10
420;DHT22;42600;54.408;13.016;2023-05-18T14:42:18;12.90;71.70
420;DHT22;42600;54.408;13.016;2023-05-18T14:44:45;12.70;72.20
420;DHT22;42600;54.408;13.016;2023-05-18T14:47:12;13.20;73.70
420;DHT22;42600;54.408;13.016;2023-05-18T14:49:38;13.20;70.00
420;DHT22;42600;54.408;13.016;2023-05-18T14:52:05;12.90;71.50
420;DHT22;42600;54.408;13.016;2023-05-18T14:54:32;12.80;71.30
420;DHT22;42600;54.408;13.016;2023-05-18T14:57:00;12.50;71.70
420;DHT22;42600;54.408;13.016;2023-05-18T14:59:26;12.60;72.50
420;DHT22;42600;54.408;13.016;2023-05-18T15:01:53;12.90;71.80
420;DHT22;42600;54.408;13.016;2023-05-18T15:04:19;12.70;71.20
420;DHT22;42600;54.408;13.016;2023-05-18T15:06:47;12.80;72.10
420;DHT22;42600;54.408;13.016;2023-05-18T15:09:13;12.90;72.40
420;DHT22;42600;54.408;13.016;2023-05-18T15:11:40;13.00;71.70
420;DHT22;42600;54.408;13.016;2023-05-18T15:14:08;12.90;72.50
420;DHT22;42600;54.408;13.016;2023-05-18T15:16:35;12.90;72.10
420;DHT22;42600;54.408;13.016;2023-05-18T15:19:01;13.00;72.40
420;DHT22;42600;54.408;13.016;2023-05-18T15:21:29;12.90;71.50
420;DHT22;42600;54.408;13.016;2023-05-18T15:23:56;13.00;72.90
420;DHT22;42600;54.408;13.016;2023-05-18T15:26:22;12.90;71.30
420;DHT22;42600;54.408;13.016;2023-05-18T15:28:50;13.00;72.40
420;DHT22;42600;54.408;13.016;2023-05-18T15:31:18;13.10;73.60
420;DHT22;42600;54.408;13.016;2023-05-18T15:33:44;13.10;71.00
420;DHT22;42600;54.408;13.016;2023-05-18T15:36:11;13.00;72.30
420;DHT22;42600;54.408;13.016;2023-05-18T15:38:38;12.80;71.10
420;DHT22;42600;54.408;13.016;2023-05-18T15:41:05;12.50;71.70
420;DHT22;42600;54.408;13.016;2023-05-18T15:43:31;12.80;74.00
420;DHT22;42600;54.408;13.016;2023-05-18T15:46:00;13.00;72.10
420;DHT22;42600;54.408;13.016;2023-05-18T15:48:28;12.70;71.80
420;DHT22;42600;54.408;13.016;2023-05-18T15:50:55;12.80;71.80
420;DHT22;42600;54.408;13.016;2023-05-18T15:53:22;13.00;71.70
420;DHT22;42600;54.408;13.016;2023-05-18T15:55:48;12.70;71.60
420;DHT22;42600;54.408;13.016;2023-05-18T15:58:18;12.50;72.90